sensor_id;sensor_type;location;lat;lon;timestamp;pressure;altitude;pressure_sealevel;temperature;humidity
5062;BME280;2351;50.812;12.872;2023-02-04T00:01:03;98342.22;;;1.78;100.00
5062;BME280;2351;50.812;12.872;2023-02-04T00:03:35;98357.88;;;1.78;100.00
5062;BME280;2351;50.812;12.872;2023-02-04T00:06:07;98367.34;;;1.80;100.00
5062;BME280;2351;50.812;12.872;2023-02-04T00:08:40;98369.03;;;1.82;100.00
5062;BME280;2351;50.812;12.872;2023-02-04T00:11:11;98370.78;;;1.81;100.00
5062;BME280;2351;50.812;12.872;2023-02-04T00:13:43;98379.34;;;1.85;100.00
5062;BME280;2351;50.812;12.872;2023-02-04T00:16:15;98381.06;;;1.86;100.00
5062;BME280;2351;50.812;12.872;2023-02-04T00:18:46;98383.72;;;1.84;100.00
5062;BME280;2351;50.812;12.872;2023-02-04T00:21:18;98365.06;;;1.93;100.00
5062;BME280;2351;50.812;12.872;2023-02-04T00:23:51;98370.19;;;1.95;100.00
5062;BME280;2351;50.812;12.872;2023-02-04T00:26:24;98384.91;;;1.98;100.00
5062;BME280;2351;50.812;12.872;2023-02-04T00:28:56;98361.19;;;2.02;100.00
5062;BME280;2351;50.812;12.872;2023-02-04T00:31:28;98382.00;;;2.04;100.00
5062;BME280;2351;50.812;12.872;2023-02-04T00:34:00;98392.38;;;2.05;100.00
5062;BME280;2351;50.812;12.872;2023-02-04T00:36:31;98406.94;;;2.11;100.00
5062;BME280;2351;50.812;12.872;2023-02-04T00:39:04;98426.00;;;2.13;100.00
5062;BME280;2351;50.812;12.872;2023-02-04T00:41:36;98477.22;;;2.16;100.00
5062;BME280;2351;50.812;12.872;2023-02-04T00:44:08;98499.69;;;1.99;100.00
5062;BME280;2351;50.812;12.872;2023-02-04T00:46:40;98516.97;;;1.81;100.00
5062;BME280;2351;50.812;12.872;2023-02-04T00:49:11;98521.88;;;1.46;100.00
5062;BME280;2351;50.812;12.872;2023-02-04T00:51:43;98539.09;;;1.28;100.00
5062;BME280;2351;50.812;12.872;2023-02-04T00:54:17;98542.28;;;1.12;100.00
5062;BME280;2351;50.812;12.872;2023-02-04T00:56:48;98553.91;;;1.03;100.00
5062;BME280;2351;50.812;12.872;2023-02-04T00:59:20;98562.06;;;0.94;100.00
5062;BME280;2351;50.812;12.872;2023-02-04T01:01:52;98563.25;;;0.85;100.00
5062;BME280;2351;50.812;12.872;2023-02-04T01:04:24;98573.84;;;0.81;100.00
5062;BME280;2351;50.812;12.872;2023-02-04T01:06:57;98585.59;;;0.67;100.00
5062;BME280;2351;50.812;12.872;2023-02-04T01:09:30;98591.91;;;0.62;100.00
5062;BME280;2351;50.812;12.872;2023-02-04T01:12:02;98601.75;;;0.53;100.00
5062;BME280;2351;50.812;12.872;2023-02-04T01:14:34;98607.97;;;0.49;100.00
5062;BME280;2351;50.812;12.872;2023-02-04T01:17:05;98613.56;;;0.37;100.00
5062;BME280;2351;50.812;12.872;2023-02-04T01:19:37;98606.00;;;0.31;100.00
5062;BME280;2351;50.812;12.872;2023-02-04T01:22:09;98615.63;;;0.27;100.00
5062;BME280;2351;50.812;12.872;2023-02-04T01:24:42;98619.16;;;0.26;100.00
5062;BME280;2351;50.812;12.872;2023-02-04T01:27:13;98626.13;;;0.25;100.00
5062;BME280;2351;50.812;12.872;2023-02-04T01:29:45;98638.28;;;0.25;100.00
5062;BME280;2351;50.812;12.872;2023-02-04T01:32:17;98642.66;;;0.24;100.00
5062;BME280;2351;50.812;12.872;2023-02-04T01:34:49;98652.16;;;0.25;100.00
5062;BME280;2351;50.812;12.872;2023-02-04T01:37:20;98670.38;;;0.25;100.00
5062;BME280;2351;50.812;12.872;2023-02-04T01:39:53;98674.63;;;0.28;100.00
5062;BME280;2351;50.812;12.872;2023-02-04T01:42:25;98681.50;;;0.31;100.00
5062;BME280;2351;50.812;12.872;2023-02-04T01:44:57;98686.66;;;0.32;100.00
5062;BME280;2351;50.812;12.872;2023-02-04T01:47:29;98705.78;;;0.31;100.00
5062;BME280;2351;50.812;12.872;2023-02-04T01:50:01;98705.78;;;0.31;100.00
5062;BME280;2351;50.812;12.872;2023-02-04T01:52:34;98708.25;;;0.36;100.00
5062;BME280;2351;50.812;12.872;2023-02-04T01:55:13;98714.41;;;0.33;100.00
5062;BME280;2351;50.812;12.872;2023-02-04T01:57:45;98729.06;;;0.36;100.00
5062;BME280;2351;50.812;12.872;2023-02-04T02:00:21;98726.53;;;0.34;100.00
5062;BME280;2351;50.812;12.872;2023-02-04T02:02:54;98740.28;;;0.38;100.00
5062;BME280;2351;50.812;12.872;2023-02-04T02:05:30;98737.78;;;0.35;100.00
5062;BME280;2351;50.812;12.872;2023-02-04T02:08:04;98752.63;;;0.33;100.00
5062;BME280;2351;50.812;12.872;2023-02-04T02:10:39;98761.63;;;0.22;100.00
5062;BME280;2351;50.812;12.872;2023-02-04T02:13:14;98769.28;;;0.27;100.00
5062;BME280;2351;50.812;12.872;2023-02-04T02:15:47;98772.94;;;0.21;100.00
5062;BME280;2351;50.812;12.872;2023-02-04T02:18:18;98780.13;;;0.13;100.00
5062;BME280;2351;50.812;12.872;2023-02-04T02:20:50;98784.63;;;0.08;100.00
5062;BME280;2351;50.812;12.872;2023-02-04T02:23:25;98790.69;;;0.08;100.00
5062;BME280;2351;50.812;12.872;2023-02-04T02:26:01;98791.50;;;0.10;100.00
5062;BME280;2351;50.812;12.872;2023-02-04T02:28:33;98807.28;;;0.04;100.00
5062;BME280;2351;50.812;12.872;2023-02-04T02:31:04;98808.22;;;0.02;100.00
5062;BME280;2351;50.812;12.872;2023-02-04T02:33:36;98821.09;;;0.06;100.00
5062;BME280;2351;50.812;12.872;2023-02-04T02:36:09;98822.91;;;0.04;100.00
5062;BME280;2351;50.812;12.872;2023-02-04T02:38:41;98832.50;;;0.02;100.00
5062;BME280;2351;50.812;12.872;2023-02-04T02:41:14;98836.78;;;0.05;100.00
5062;BME280;2351;50.812;12.872;2023-02-04T02:43:46;98834.25;;;0.02;100.00
5062;BME280;2351;50.812;12.872;2023-02-04T02:46:17;98835.22;;;-0.01;100.00
5062;BME280;2351;50.812;12.872;2023-02-04T02:48:49;98837.72;;;0.02;100.00
5062;BME280;2351;50.812;12.872;2023-02-04T02:51:21;98851.59;;;0.03;100.00
5062;BME280;2351;50.812;12.872;2023-02-04T02:53:53;98863.75;;;0.02;100.00
5062;BME280;2351;50.812;12.872;2023-02-04T02:56:26;98862.03;;;0.01;100.00
5062;BME280;2351;50.812;12.872;2023-02-04T02:59:11;98863.78;;;0.01;100.00
5062;BME280;2351;50.812;12.872;2023-02-04T03:01:44;98870.88;;;-0.05;100.00
5062;BME280;2351;50.812;12.872;2023-02-04T03:04:19;98888.28;;;-0.07;100.00
5062;BME280;2351;50.812;12.872;2023-02-04T03:06:52;98890.06;;;-0.09;100.00
5062;BME280;2351;50.812;12.872;2023-02-04T03:09:26;98897.88;;;-0.09;100.00
5062;BME280;2351;50.812;12.872;2023-02-04T03:12:00;98900.53;;;-0.10;100.00
5062;BME280;2351;50.812;12.872;2023-02-04T03:14:32;98904.84;;;-0.09;100.00
5062;BME280;2351;50.812;12.872;2023-02-04T03:17:05;98911.78;;;-0.10;100.00
5062;BME280;2351;50.812;12.872;2023-02-04T03:19:38;98908.47;;;-0.15;100.00
5062;BME280;2351;50.812;12.872;2023-02-04T03:22:10;98930.19;;;-0.16;100.00
5062;BME280;2351;50.812;12.872;2023-02-04T03:24:42;98944.03;;;-0.14;100.00
5062;BME280;2351;50.812;12.872;2023-02-04T03:27:15;98943.22;;;-0.18;100.00
5062;BME280;2351;50.812;12.872;2023-02-04T03:29:47;98950.19;;;-0.18;100.00
5062;BME280;2351;50.812;12.872;2023-02-04T03:32:18;98961.50;;;-0.19;100.00
5062;BME280;2351;50.812;12.872;2023-02-04T03:34:50;98964.09;;;-0.19;100.00
5062;BME280;2351;50.812;12.872;2023-02-04T03:37:22;98969.25;;;-0.18;100.00
5062;BME280;2351;50.812;12.872;2023-02-04T03:39:53;98971.16;;;-0.23;100.00
5062;BME280;2351;50.812;12.872;2023-02-04T03:42:27;98979.09;;;-0.29;100.00
5062;BME280;2351;50.812;12.872;2023-02-04T03:44:58;98989.56;;;-0.32;100.00
5062;BME280;2351;50.812;12.872;2023-02-04T03:47:30;98992.19;;;-0.32;100.00
5062;BME280;2351;50.812;12.872;2023-02-04T03:50:02;98998.31;;;-0.35;100.00
5062;BME280;2351;50.812;12.872;2023-02-04T03:52:34;99013.94;;;-0.36;100.00
5062;BME280;2351;50.812;12.872;2023-02-04T03:55:06;99006.19;;;-0.38;100.00
5062;BME280;2351;50.812;12.872;2023-02-04T03:57:39;99016.53;;;-0.35;100.00
5062;BME280;2351;50.812;12.872;2023-02-04T04:00:12;99033.03;;;-0.36;100.00
5062;BME280;2351;50.812;12.872;2023-02-04T04:02:43;99039.91;;;-0.33;100.00
5062;BME280;2351;50.812;12.872;2023-02-04T04:05:15;99040.03;;;-0.38;100.00
5062;BME280;2351;50.812;12.872;2023-02-04T04:07:47;99030.56;;;-0.42;100.00
5062;BME280;2351;50.812;12.872;2023-02-04T04:10:19;99051.25;;;-0.37;100.00
5062;BME280;2351;50.812;12.872;2023-02-04T04:12:52;99062.63;;;-0.41;100.00
5062;BME280;2351;50.812;12.872;2023-02-04T04:15:24;99071.31;;;-0.41;100.00
5062;BME280;2351;50.812;12.872;2023-02-04T04:17:55;99074.88;;;-0.45;100.00
5062;BME280;2351;50.812;12.872;2023-02-04T04:20:27;99081.84;;;-0.47;100.00
5062;BME280;2351;50.812;12.872;2023-02-04T04:22:59;99096.69;;;-0.51;100.00
5062;BME280;2351;50.812;12.872;2023-02-04T04:25:31;99109.69;;;-0.52;100.00
5062;BME280;2351;50.812;12.872;2023-02-04T04:28:04;99118.38;;;-0.52;100.00
5062;BME280;2351;50.812;12.872;2023-02-04T04:30:35;99123.69;;;-0.56;100.00
5062;BME280;2351;50.812;12.872;2023-02-04T04:33:07;99127.25;;;-0.61;100.00
5062;BME280;2351;50.812;12.872;2023-02-04T04:35:39;99138.47;;;-0.60;100.00
5062;BME280;2351;50.812;12.872;2023-02-04T04:38:11;99147.97;;;-0.57;100.00
5062;BME280;2351;50.812;12.872;2023-02-04T04:40:43;99154.97;;;-0.59;100.00
5062;BME280;2351;50.812;12.872;2023-02-04T04:43:16;99165.38;;;-0.61;100.00
5062;BME280;2351;50.812;12.872;2023-02-04T04:45:47;99161.06;;;-0.61;100.00
5062;BME280;2351;50.812;12.872;2023-02-04T04:48:19;99174.06;;;-0.62;100.00
5062;BME280;2351;50.812;12.872;2023-02-04T04:50:52;99175.88;;;-0.66;100.00
5062;BME280;2351;50.812;12.872;2023-02-04T04:53:24;99179.47;;;-0.71;100.00
5062;BME280;2351;50.812;12.872;2023-02-04T04:55:56;99183.03;;;-0.77;100.00
5062;BME280;2351;50.812;12.872;2023-02-04T04:58:29;99184.75;;;-0.76;100.00
5062;BME280;2351;50.812;12.872;2023-02-04T05:01:00;99189.94;;;-0.76;100.00
5062;BME280;2351;50.812;12.872;2023-02-04T05:03:32;99186.50;;;-0.77;100.00
5062;BME280;2351;50.812;12.872;2023-02-04T05:06:04;99192.50;;;-0.73;100.00
5062;BME280;2351;50.812;12.872;2023-02-04T05:08:36;99207.38;;;-0.80;100.00
5062;BME280;2351;50.812;12.872;2023-02-04T05:11:07;99203.03;;;-0.79;100.00
5062;BME280;2351;50.812;12.872;2023-02-04T05:13:41;99204.91;;;-0.87;100.00
5062;BME280;2351;50.812;12.872;2023-02-04T05:16:12;99217.91;;;-0.87;100.00
5062;BME280;2351;50.812;12.872;2023-02-04T05:18:45;99217.00;;;-0.85;100.00
5062;BME280;2351;50.812;12.872;2023-02-04T05:21:17;99223.13;;;-0.87;100.00
5062;BME280;2351;50.812;12.872;2023-02-04T05:23:48;99224.78;;;-0.83;100.00
5062;BME280;2351;50.812;12.872;2023-02-04T05:26:20;99225.66;;;-0.86;100.00
5062;BME280;2351;50.812;12.872;2023-02-04T05:28:53;99234.44;;;-0.90;100.00
5062;BME280;2351;50.812;12.872;2023-02-04T05:31:25;99239.59;;;-0.88;100.00
5062;BME280;2351;50.812;12.872;2023-02-04T05:33:57;99241.41;;;-0.92;100.00
5062;BME280;2351;50.812;12.872;2023-02-04T05:36:28;99246.72;;;-0.98;100.00
5062;BME280;2351;50.812;12.872;2023-02-04T05:39:00;99254.59;;;-1.03;100.00
5062;BME280;2351;50.812;12.872;2023-02-04T05:41:32;99252.69;;;-0.95;100.00
5062;BME280;2351;50.812;12.872;2023-02-04T05:44:05;99258.84;;;-0.99;100.00
5062;BME280;2351;50.812;12.872;2023-02-04T05:46:37;99259.75;;;-1.00;100.00
5062;BME280;2351;50.812;12.872;2023-02-04T05:49:08;99263.09;;;-0.95;100.00
5062;BME280;2351;50.812;12.872;2023-02-04T05:51:40;99259.63;;;-0.94;100.00
5062;BME280;2351;50.812;12.872;2023-02-04T05:54:12;99265.75;;;-0.98;100.00
5062;BME280;2351;50.812;12.872;2023-02-04T05:56:48;99275.25;;;-0.97;100.00
5062;BME280;2351;50.812;12.872;2023-02-04T05:59:22;99279.63;;;-0.97;100.00
5062;BME280;2351;50.812;12.872;2023-02-04T06:01:54;99278.78;;;-0.99;100.00
5062;BME280;2351;50.812;12.872;2023-02-04T06:04:26;99290.75;;;-0.91;100.00
5062;BME280;2351;50.812;12.872;2023-02-04T06:06:57;99297.72;;;-0.91;100.00
5062;BME280;2351;50.812;12.872;2023-02-04T06:09:30;99313.28;;;-0.89;100.00
5062;BME280;2351;50.812;12.872;2023-02-04T06:12:02;99331.47;;;-0.89;100.00
5062;BME280;2351;50.812;12.872;2023-02-04T06:14:35;99329.78;;;-0.92;100.00
5062;BME280;2351;50.812;12.872;2023-02-04T06:17:06;99336.72;;;-0.93;100.00
5062;BME280;2351;50.812;12.872;2023-02-04T06:19:38;99347.16;;;-0.96;100.00
5062;BME280;2351;50.812;12.872;2023-02-04T06:22:10;99346.22;;;-0.92;100.00
5062;BME280;2351;50.812;12.872;2023-02-04T06:24:42;99346.28;;;-0.95;100.00
5062;BME280;2351;50.812;12.872;2023-02-04T06:27:13;99362.75;;;-0.94;100.00
5062;BME280;2351;50.812;12.872;2023-02-04T06:29:49;99361.06;;;-0.98;100.00
5062;BME280;2351;50.812;12.872;2023-02-04T06:32:21;99370.59;;;-0.99;100.00
5062;BME280;2351;50.812;12.872;2023-02-04T06:34:53;99381.97;;;-1.03;100.00
5062;BME280;2351;50.812;12.872;2023-02-04T06:37:25;99382.88;;;-1.07;100.00
5062;BME280;2351;50.812;12.872;2023-02-04T06:39:56;99385.47;;;-1.09;100.00
5062;BME280;2351;50.812;12.872;2023-02-04T06:42:28;99395.06;;;-1.11;100.00
5062;BME280;2351;50.812;12.872;2023-02-04T06:45:01;99394.19;;;-1.11;100.00
5062;BME280;2351;50.812;12.872;2023-02-04T06:47:33;99402.03;;;-1.14;100.00
5062;BME280;2351;50.812;12.872;2023-02-04T06:50:05;99407.19;;;-1.11;100.00
5062;BME280;2351;50.812;12.872;2023-02-04T06:52:37;99406.38;;;-1.15;100.00
5062;BME280;2351;50.812;12.872;2023-02-04T06:55:09;99415.03;;;-1.14;100.00
5062;BME280;2351;50.812;12.872;2023-02-04T06:57:41;99421.16;;;-1.17;100.00
5062;BME280;2351;50.812;12.872;2023-02-04T07:00:14;99426.50;;;-1.28;100.00
5062;BME280;2351;50.812;12.872;2023-02-04T07:02:46;99430.81;;;-1.28;100.00
5062;BME280;2351;50.812;12.872;2023-02-04T07:05:18;99431.69;;;-1.29;100.00
5062;BME280;2351;50.812;12.872;2023-02-04T07:07:50;99432.53;;;-1.26;100.00
5062;BME280;2351;50.812;12.872;2023-02-04T07:10:22;99437.69;;;-1.24;100.00
5062;BME280;2351;50.812;12.872;2023-02-04T07:12:53;99436.81;;;-1.23;100.00
5062;BME280;2351;50.812;12.872;2023-02-04T07:15:26;99432.47;;;-1.21;100.00
5062;BME280;2351;50.812;12.872;2023-02-04T07:17:58;99434.19;;;-1.20;100.00
5062;BME280;2351;50.812;12.872;2023-02-04T07:20:30;99440.28;;;-1.23;100.00
5062;BME280;2351;50.812;12.872;2023-02-04T07:23:02;99433.41;;;-1.27;100.00
5062;BME280;2351;50.812;12.872;2023-02-04T07:25:34;99423.84;;;-1.25;100.00
5062;BME280;2351;50.812;12.872;2023-02-04T07:28:05;99425.53;;;-1.22;100.00
5062;BME280;2351;50.812;12.872;2023-02-04T07:30:39;99433.34;;;-1.22;100.00
5062;BME280;2351;50.812;12.872;2023-02-04T07:33:10;99429.00;;;-1.22;100.00
5062;BME280;2351;50.812;12.872;2023-02-04T07:35:42;99436.81;;;-1.23;100.00
5062;BME280;2351;50.812;12.872;2023-02-04T07:38:14;99436.78;;;-1.20;100.00
5062;BME280;2351;50.812;12.872;2023-02-04T07:40:46;99449.69;;;-1.15;100.00
5062;BME280;2351;50.812;12.872;2023-02-04T07:43:17;99458.25;;;-1.07;100.00
5062;BME280;2351;50.812;12.872;2023-02-04T07:45:51;99464.22;;;-1.00;100.00
5062;BME280;2351;50.812;12.872;2023-02-04T07:48:22;99465.91;;;-0.98;100.00
5062;BME280;2351;50.812;12.872;2023-02-04T07:50:54;99479.69;;;-0.93;100.00
5062;BME280;2351;50.812;12.872;2023-02-04T07:53:26;99484.06;;;-0.93;100.00
5062;BME280;2351;50.812;12.872;2023-02-04T07:55:57;99494.50;;;-0.98;100.00
5062;BME280;2351;50.812;12.872;2023-02-04T07:58:29;99496.22;;;-0.95;100.00
5062;BME280;2351;50.812;12.872;2023-02-04T08:01:02;99500.53;;;-0.96;100.00
5062;BME280;2351;50.812;12.872;2023-02-04T08:03:34;99504.97;;;-1.01;100.00
5062;BME280;2351;50.812;12.872;2023-02-04T08:06:06;99510.03;;;-0.95;100.00
5062;BME280;2351;50.812;12.872;2023-02-04T08:08:37;99522.28;;;-1.01;100.00
5062;BME280;2351;50.812;12.872;2023-02-04T08:11:09;99526.59;;;-1.00;100.00
5062;BME280;2351;50.812;12.872;2023-02-04T08:13:41;99527.47;;;-1.00;100.00
5062;BME280;2351;50.812;12.872;2023-02-04T08:16:14;99537.91;;;-1.03;100.00
5062;BME280;2351;50.812;12.872;2023-02-04T08:18:46;99544.78;;;-1.00;100.00
5062;BME280;2351;50.812;12.872;2023-02-04T08:21:17;99550.84;;;-0.98;100.00
5062;BME280;2351;50.812;12.872;2023-02-04T08:23:49;99554.25;;;-0.95;100.00
5062;BME280;2351;50.812;12.872;2023-02-04T08:26:21;99550.91;;;-1.03;100.00
5062;BME280;2351;50.812;12.872;2023-02-04T08:28:52;99562.16;;;-1.01;100.00
5062;BME280;2351;50.812;12.872;2023-02-04T08:31:25;99552.56;;;-0.99;100.00
5062;BME280;2351;50.812;12.872;2023-02-04T08:33:57;99563.84;;;-0.98;100.00
5062;BME280;2351;50.812;12.872;2023-02-04T08:36:29;99569.88;;;-0.98;100.00
5062;BME280;2351;50.812;12.872;2023-02-04T08:39:01;99579.47;;;-1.00;100.00
5062;BME280;2351;50.812;12.872;2023-02-04T08:41:33;99578.56;;;-0.99;100.00
5062;BME280;2351;50.812;12.872;2023-02-04T08:44:05;99582.00;;;-0.95;100.00
5062;BME280;2351;50.812;12.872;2023-02-04T08:49:19;99594.13;;;-0.96;100.00
5062;BME280;2351;50.812;12.872;2023-02-04T08:51:51;99595.88;;;-0.98;100.00
5062;BME280;2351;50.812;12.872;2023-02-04T08:54:22;99604.53;;;-0.99;100.00
5062;BME280;2351;50.812;12.872;2023-02-04T08:56:55;99606.34;;;-1.01;100.00
5062;BME280;2351;50.812;12.872;2023-02-04T08:59:27;99614.94;;;-0.99;100.00
5062;BME280;2351;50.812;12.872;2023-02-04T09:01:59;99619.22;;;-0.95;100.00
5062;BME280;2351;50.812;12.872;2023-02-04T09:04:33;99627.88;;;-0.91;100.00
5062;BME280;2351;50.812;12.872;2023-02-04T09:07:05;99628.72;;;-0.89;100.00
5062;BME280;2351;50.812;12.872;2023-02-04T09:09:37;99633.00;;;-0.88;100.00
5062;BME280;2351;50.812;12.872;2023-02-04T09:12:08;99635.50;;;-0.79;100.00
5062;BME280;2351;50.812;12.872;2023-02-04T09:14:40;99638.00;;;-0.71;100.00
5062;BME280;2351;50.812;12.872;2023-02-04T09:17:12;99641.41;;;-0.66;100.00
5062;BME280;2351;50.812;12.872;2023-02-04T09:19:45;99644.00;;;-0.66;100.00
5062;BME280;2351;50.812;12.872;2023-02-04T09:22:16;99645.63;;;-0.55;100.00
5062;BME280;2351;50.812;12.872;2023-02-04T09:24:48;99649.88;;;-0.50;100.00
5062;BME280;2351;50.812;12.872;2023-02-04T09:27:20;99656.81;;;-0.49;100.00
5062;BME280;2351;50.812;12.872;2023-02-04T09:29:52;99661.81;;;-0.36;100.00
5062;BME280;2351;50.812;12.872;2023-02-04T09:32:23;99663.22;;;-0.12;100.00
5062;BME280;2351;50.812;12.872;2023-02-04T09:34:56;99668.91;;;0.12;100.00
5062;BME280;2351;50.812;12.872;2023-02-04T09:37:28;99670.75;;;0.05;100.00
5062;BME280;2351;50.812;12.872;2023-02-04T09:40:00;99670.09;;;-0.08;100.00
5062;BME280;2351;50.812;12.872;2023-02-04T09:42:32;99678.63;;;0.02;100.00
5062;BME280;2351;50.812;12.872;2023-02-04T09:45:04;99682.72;;;0.17;100.00
5062;BME280;2351;50.812;12.872;2023-02-04T09:47:36;99681.25;;;0.54;100.00
5062;BME280;2351;50.812;12.872;2023-02-04T09:50:13;99684.09;;;0.90;100.00
5062;BME280;2351;50.812;12.872;2023-02-04T09:52:46;99684.66;;;1.06;100.00
5062;BME280;2351;50.812;12.872;2023-02-04T09:55:33;99695.34;;;0.94;98.65
5062;BME280;2351;50.812;12.872;2023-02-04T09:58:10;99694.50;;;0.92;100.00
5062;BME280;2351;50.812;12.872;2023-02-04T10:00:47;99700.94;;;0.72;97.73
5062;BME280;2351;50.812;12.872;2023-02-04T10:03:19;99706.09;;;0.75;100.00
5062;BME280;2351;50.812;12.872;2023-02-04T10:05:53;99703.16;;;0.92;100.00
5062;BME280;2351;50.812;12.872;2023-02-04T10:08:28;99698.22;;;1.25;100.00
5062;BME280;2351;50.812;12.872;2023-02-04T10:11:01;99703.50;;;1.64;100.00
5062;BME280;2351;50.812;12.872;2023-02-04T10:13:36;99694.75;;;2.06;100.00
5062;BME280;2351;50.812;12.872;2023-02-04T10:16:13;99701.44;;;2.17;100.00
5062;BME280;2351;50.812;12.872;2023-02-04T10:18:46;99701.47;;;2.53;100.00
5062;BME280;2351;50.812;12.872;2023-02-04T10:21:21;99702.31;;;2.88;100.00
5062;BME280;2351;50.812;12.872;2023-02-04T10:23:56;99696.03;;;2.95;100.00
5062;BME280;2351;50.812;12.872;2023-02-04T10:26:29;99697.97;;;2.87;100.00
5062;BME280;2351;50.812;12.872;2023-02-04T10:29:03;99685.50;;;2.64;98.43
5062;BME280;2351;50.812;12.872;2023-02-04T10:31:37;99701.22;;;2.62;96.54
5062;BME280;2351;50.812;12.872;2023-02-04T10:34:13;99697.66;;;2.30;96.46
5062;BME280;2351;50.812;12.872;2023-02-04T10:36:47;99709.38;;;1.74;85.21
5062;BME280;2351;50.812;12.872;2023-02-04T10:39:20;99703.72;;;1.54;86.31
5062;BME280;2351;50.812;12.872;2023-02-04T10:41:54;99710.38;;;1.26;86.57
5062;BME280;2351;50.812;12.872;2023-02-04T10:44:27;99707.28;;;1.05;88.37
5062;BME280;2351;50.812;12.872;2023-02-04T10:47:00;99712.81;;;0.88;87.07
5062;BME280;2351;50.812;12.872;2023-02-04T10:49:32;99713.94;;;0.75;88.06
5062;BME280;2351;50.812;12.872;2023-02-04T10:52:14;99713.09;;;0.73;88.32
5062;BME280;2351;50.812;12.872;2023-02-04T10:54:46;99710.97;;;0.94;93.10
5062;BME280;2351;50.812;12.872;2023-02-04T10:57:21;99712.03;;;1.30;95.31
5062;BME280;2351;50.812;12.872;2023-02-04T10:59:55;99717.81;;;1.45;94.35
5062;BME280;2351;50.812;12.872;2023-02-04T11:02:41;99710.09;;;1.40;89.38
5062;BME280;2351;50.812;12.872;2023-02-04T11:05:15;99715.31;;;1.40;92.46
5062;BME280;2351;50.812;12.872;2023-02-04T11:07:49;99717.94;;;1.39;90.15
5062;BME280;2351;50.812;12.872;2023-02-04T11:10:22;99717.31;;;1.26;88.07
5062;BME280;2351;50.812;12.872;2023-02-04T11:13:02;99712.25;;;1.19;86.57
5062;BME280;2351;50.812;12.872;2023-02-04T11:15:43;99723.81;;;1.04;85.45
5062;BME280;2351;50.812;12.872;2023-02-04T11:18:26;99723.72;;;1.09;88.33
5062;BME280;2351;50.812;12.872;2023-02-04T11:20:59;99723.56;;;1.17;88.66
5062;BME280;2351;50.812;12.872;2023-02-04T11:23:34;99730.16;;;1.37;89.99
5062;BME280;2351;50.812;12.872;2023-02-04T11:26:09;99730.59;;;1.57;90.79
5062;BME280;2351;50.812;12.872;2023-02-04T11:29:06;99731.38;;;1.62;86.63
5062;BME280;2351;50.812;12.872;2023-02-04T11:31:55;99735.59;;;1.68;87.11
5062;BME280;2351;50.812;12.872;2023-02-04T11:34:30;99741.59;;;1.73;84.27
5062;BME280;2351;50.812;12.872;2023-02-04T11:37:13;99734.84;;;2.04;89.83
5062;BME280;2351;50.812;12.872;2023-02-04T11:39:48;99736.47;;;2.09;86.34
5062;BME280;2351;50.812;12.872;2023-02-04T11:42:22;99731.16;;;2.13;84.48
5062;BME280;2351;50.812;12.872;2023-02-04T11:44:58;99743.44;;;2.09;82.45
5062;BME280;2351;50.812;12.872;2023-02-04T11:47:34;99748.19;;;1.91;79.08
5062;BME280;2351;50.812;12.872;2023-02-04T11:50:14;99744.19;;;1.73;77.39
5062;BME280;2351;50.812;12.872;2023-02-04T11:52:46;99741.94;;;1.97;83.89
5062;BME280;2351;50.812;12.872;2023-02-04T11:55:19;99745.34;;;2.40;90.46
5062;BME280;2351;50.812;12.872;2023-02-04T11:57:53;99746.28;;;2.74;87.72
5062;BME280;2351;50.812;12.872;2023-02-04T12:00:28;99749.31;;;2.91;85.08
5062;BME280;2351;50.812;12.872;2023-02-04T12:03:02;99743.25;;;2.89;82.08
5062;BME280;2351;50.812;12.872;2023-02-04T12:05:38;99741.59;;;2.86;80.94
5062;BME280;2351;50.812;12.872;2023-02-04T12:08:12;99751.66;;;2.67;78.88
5062;BME280;2351;50.812;12.872;2023-02-04T12:11:02;99745.66;;;2.62;79.88
5062;BME280;2351;50.812;12.872;2023-02-04T12:13:46;99745.75;;;2.59;79.60
5062;BME280;2351;50.812;12.872;2023-02-04T12:16:19;99744.03;;;2.58;80.42
5062;BME280;2351;50.812;12.872;2023-02-04T12:18:51;99745.91;;;2.53;79.38
5062;BME280;2351;50.812;12.872;2023-02-04T12:21:24;99751.47;;;2.37;76.82
5062;BME280;2351;50.812;12.872;2023-02-04T12:23:55;99755.66;;;2.08;74.71
5062;BME280;2351;50.812;12.872;2023-02-04T12:26:28;99757.44;;;2.06;77.08
5062;BME280;2351;50.812;12.872;2023-02-04T12:29:00;99753.78;;;2.14;77.44
5062;BME280;2351;50.812;12.872;2023-02-04T12:31:34;99755.41;;;2.18;76.96
5062;BME280;2351;50.812;12.872;2023-02-04T12:34:06;99760.63;;;2.19;78.06
5062;BME280;2351;50.812;12.872;2023-02-04T12:36:38;99760.22;;;2.36;78.96
5062;BME280;2351;50.812;12.872;2023-02-04T12:39:10;99769.19;;;2.64;80.19
5062;BME280;2351;50.812;12.872;2023-02-04T12:41:43;99755.72;;;2.79;77.44
5062;BME280;2351;50.812;12.872;2023-02-04T12:44:14;99752.31;;;2.76;78.01
5062;BME280;2351;50.812;12.872;2023-02-04T12:46:46;99753.66;;;2.91;78.35
5062;BME280;2351;50.812;12.872;2023-02-04T12:49:19;99750.84;;;2.98;78.35
5062;BME280;2351;50.812;12.872;2023-02-04T12:51:53;99752.56;;;3.33;79.64
5062;BME280;2351;50.812;12.872;2023-02-04T12:54:28;99756.63;;;3.43;78.85
5062;BME280;2351;50.812;12.872;2023-02-04T12:57:01;99749.81;;;3.37;77.40
5062;BME280;2351;50.812;12.872;2023-02-04T12:59:33;99757.34;;;3.16;75.82
5062;BME280;2351;50.812;12.872;2023-02-04T13:02:04;99753.16;;;3.11;76.12
5062;BME280;2351;50.812;12.872;2023-02-04T13:04:36;99758.88;;;2.92;74.87
5062;BME280;2351;50.812;12.872;2023-02-04T13:07:08;99765.28;;;2.80;75.50
5062;BME280;2351;50.812;12.872;2023-02-04T13:09:40;99765.50;;;2.71;75.48
5062;BME280;2351;50.812;12.872;2023-02-04T13:12:13;99768.16;;;2.69;75.35
5062;BME280;2351;50.812;12.872;2023-02-04T13:14:45;99763.00;;;2.66;75.37
5062;BME280;2351;50.812;12.872;2023-02-04T13:17:17;99769.94;;;2.67;75.30
5062;BME280;2351;50.812;12.872;2023-02-04T13:19:48;99763.47;;;2.46;73.76
5062;BME280;2351;50.812;12.872;2023-02-04T13:22:20;99768.22;;;2.30;73.17
5062;BME280;2351;50.812;12.872;2023-02-04T13:24:52;99768.72;;;2.07;72.63
5062;BME280;2351;50.812;12.872;2023-02-04T13:27:25;99771.50;;;1.99;73.04
5062;BME280;2351;50.812;12.872;2023-02-04T13:29:57;99773.56;;;1.85;73.10
5062;BME280;2351;50.812;12.872;2023-02-04T13:32:29;99781.53;;;1.77;73.59
5062;BME280;2351;50.812;12.872;2023-02-04T13:35:01;99782.69;;;1.63;73.54
5062;BME280;2351;50.812;12.872;2023-02-04T13:37:32;99778.72;;;1.44;74.84
5062;BME280;2351;50.812;12.872;2023-02-04T13:40:05;99780.56;;;1.39;75.42